createdAt,value
2019-03-23T00:00:09.893Z,10.00
2019-03-23T00:02:39.279Z,9.03
2019-03-23T00:05:08.967Z,9.23
2019-03-23T00:07:38.673Z,9.20
2019-03-23T00:10:08.569Z,10.73
2019-03-23T00:12:38.235Z,9.50
2019-03-23T00:15:08.650Z,9.87
2019-03-23T00:17:38.202Z,10.27
2019-03-23T00:20:07.990Z,9.43
2019-03-23T00:22:37.527Z,10.17
2019-03-23T00:25:07.138Z,9.83
2019-03-23T00:27:36.483Z,10.27
2019-03-23T00:30:07.399Z,9.63
2019-03-23T00:32:37.062Z,9.50
2019-03-23T00:35:07.267Z,9.77
2019-03-23T00:37:36.770Z,9.23
2019-03-23T00:40:07.286Z,9.60
2019-03-23T00:42:37.207Z,10.13
2019-03-23T00:45:07.424Z,9.77
2019-03-23T00:47:36.991Z,10.20
2019-03-23T00:50:07.234Z,9.37
2019-03-23T00:52:36.851Z,9.67
2019-03-23T00:55:06.947Z,9.57
2019-03-23T00:57:36.375Z,9.83
2019-03-23T01:00:07.010Z,8.97
2019-03-23T01:02:36.303Z,9.87
2019-03-23T01:05:06.422Z,11.37
2019-03-23T01:07:35.815Z,9.80
2019-03-23T01:10:06.678Z,9.87
2019-03-23T01:12:36.157Z,9.07
2019-03-23T01:15:07.012Z,9.03
2019-03-23T01:17:36.325Z,10.00
2019-03-23T01:20:07.862Z,9.70
2019-03-23T01:22:37.287Z,9.47
2019-03-23T01:25:07.796Z,9.97
2019-03-23T01:27:37.173Z,8.43
2019-03-23T01:30:08.119Z,8.60
2019-03-23T01:32:38.012Z,9.10
2019-03-23T01:35:08.441Z,9.37
2019-03-23T01:37:37.923Z,9.53
2019-03-23T01:40:08.159Z,9.50
2019-03-23T01:42:37.543Z,8.97
2019-03-23T01:45:07.744Z,9.40
2019-03-23T01:47:37.175Z,10.27
2019-03-23T01:50:06.968Z,7.80
2019-03-23T01:52:36.589Z,9.70
2019-03-23T01:55:06.582Z,9.27
2019-03-23T01:57:36.243Z,9.03
2019-03-23T02:00:07.151Z,9.63
2019-03-23T02:02:36.707Z,11.17
2019-03-23T02:05:06.930Z,10.03
2019-03-23T02:07:36.331Z,9.07
2019-03-23T02:10:06.321Z,8.30
2019-03-23T02:12:35.743Z,9.20
2019-03-23T02:15:05.585Z,9.20
2019-03-23T02:17:35.020Z,8.63
2019-03-23T02:20:05.471Z,10.30
2019-03-23T02:22:35.175Z,9.37
2019-03-23T02:25:04.969Z,8.10
2019-03-23T02:27:34.610Z,8.87
2019-03-23T02:30:04.157Z,9.10
2019-03-23T02:32:33.802Z,9.73
2019-03-23T02:35:03.205Z,9.37
2019-03-23T02:37:32.551Z,9.13
2019-03-23T02:40:01.944Z,9.57
2019-03-23T02:42:31.339Z,8.10
2019-03-23T02:45:00.660Z,8.90
2019-03-23T02:47:29.988Z,8.97
2019-03-23T02:49:59.405Z,8.93
2019-03-23T02:52:28.757Z,8.97
2019-03-23T02:54:58.131Z,9.50
2019-03-23T02:57:27.742Z,9.40
2019-03-23T02:59:57.314Z,9.23
2019-03-23T03:02:26.755Z,10.80
2019-03-23T03:04:56.216Z,8.70
2019-03-23T03:07:25.936Z,9.70
2019-03-23T03:09:55.487Z,10.50
2019-03-23T03:12:24.974Z,9.20
2019-03-23T03:14:54.530Z,8.70
2019-03-23T03:17:24.095Z,9.70
2019-03-23T03:19:54.056Z,10.30
2019-03-23T03:22:23.786Z,9.13
2019-03-23T03:24:53.200Z,8.70
2019-03-23T03:27:22.555Z,9.33
2019-03-23T03:29:51.961Z,9.10
2019-03-23T03:32:21.388Z,10.60
2019-03-23T03:34:50.696Z,9.50
2019-03-23T03:37:20.091Z,9.00
2019-03-23T03:39:49.406Z,9.77
2019-03-23T03:42:19.076Z,9.10
2019-03-23T03:44:48.476Z,9.50
2019-03-23T03:47:17.942Z,9.87
2019-03-23T03:49:47.383Z,9.90
2019-03-23T03:52:16.968Z,8.70
2019-03-23T03:54:46.298Z,8.30
2019-03-23T03:57:15.850Z,8.90
2019-03-23T03:59:45.167Z,9.00
2019-03-23T04:02:14.771Z,10.60
2019-03-23T04:04:44.153Z,10.80
2019-03-23T04:07:13.618Z,8.43
2019-03-23T04:09:42.946Z,9.63
2019-03-23T04:12:12.294Z,9.17
2019-03-23T04:14:41.616Z,9.13
2019-03-23T04:17:10.960Z,10.57
2019-03-23T04:19:40.362Z,10.13
2019-03-23T04:22:09.833Z,11.23
2019-03-23T04:24:39.146Z,10.17
2019-03-23T04:27:08.468Z,10.43
2019-03-23T04:29:38.207Z,11.57
2019-03-23T04:32:07.541Z,10.07
2019-03-23T04:34:37.344Z,11.40
2019-03-23T04:37:06.760Z,9.70
2019-03-23T04:39:36.067Z,10.00
2019-03-23T04:42:05.589Z,11.77
2019-03-23T04:44:34.930Z,10.10
2019-03-23T04:47:04.338Z,11.25
2019-03-23T04:49:33.739Z,9.80
2019-03-23T04:52:03.108Z,10.47
2019-03-23T04:54:32.685Z,9.55
2019-03-23T04:57:02.010Z,9.60
2019-03-23T04:59:31.424Z,9.58
2019-03-23T05:02:00.815Z,9.73
2019-03-23T05:04:30.151Z,10.23
2019-03-23T05:06:59.779Z,10.10
2019-03-23T05:09:29.135Z,9.98
2019-03-23T05:11:58.712Z,10.00
2019-03-23T05:14:28.069Z,10.53
2019-03-23T05:16:57.410Z,9.30
2019-03-23T05:19:26.960Z,10.60
2019-03-23T05:21:56.675Z,10.23
2019-03-23T05:24:26.091Z,9.93
2019-03-23T05:26:55.667Z,11.20
2019-03-23T05:29:25.264Z,10.80
2019-03-23T05:31:54.851Z,11.00
2019-03-23T05:34:24.243Z,9.77
2019-03-23T05:36:53.582Z,10.98
2019-03-23T05:39:23.007Z,12.23
2019-03-23T05:41:52.336Z,9.28
2019-03-23T05:44:21.746Z,10.30
2019-03-23T05:46:51.072Z,10.07
2019-03-23T05:49:20.421Z,11.50
2019-03-23T05:51:50.149Z,11.87
2019-03-23T05:54:19.470Z,11.83
2019-03-23T05:56:48.895Z,11.10
2019-03-23T05:59:18.307Z,11.40
2019-03-23T06:01:47.724Z,9.97
2019-03-23T06:04:17.115Z,10.87
2019-03-23T06:06:46.548Z,10.87
2019-03-23T06:09:16.392Z,10.73
2019-03-23T06:11:45.743Z,10.37
2019-03-23T06:14:15.171Z,10.78
2019-03-23T06:16:44.530Z,11.18
2019-03-23T06:19:13.900Z,11.78
2019-03-23T06:21:43.573Z,10.70
2019-03-23T06:24:12.967Z,10.05
2019-03-23T06:26:42.391Z,10.90
2019-03-23T06:29:11.782Z,11.07
2019-03-23T06:31:41.335Z,10.43
2019-03-23T06:34:10.939Z,10.10
2019-03-23T06:36:40.247Z,10.93
2019-03-23T06:39:09.643Z,9.60
2019-03-23T06:41:39.222Z,11.00
2019-03-23T06:44:07.919Z,11.80
2019-03-23T06:46:37.257Z,10.30
2019-03-23T06:49:06.915Z,11.20
2019-03-23T06:51:36.313Z,9.53
2019-03-23T06:54:05.938Z,11.20
2019-03-23T06:56:35.451Z,10.80
2019-03-23T06:59:05.315Z,11.10
2019-03-23T07:01:34.707Z,10.37
2019-03-23T07:04:04.332Z,10.20
2019-03-23T07:06:33.771Z,10.80
2019-03-23T07:09:03.262Z,11.20
2019-03-23T07:11:32.958Z,11.60
2019-03-23T07:14:02.659Z,11.03
2019-03-23T07:16:32.014Z,10.53
2019-03-23T07:19:01.646Z,9.97
2019-03-23T07:21:31.069Z,9.83
2019-03-23T07:24:00.648Z,11.30
2019-03-23T07:26:30.050Z,11.87
2019-03-23T07:28:59.395Z,12.57
2019-03-23T07:31:29.028Z,12.60
2019-03-23T07:33:58.425Z,11.73
2019-03-23T07:36:28.140Z,12.00
2019-03-23T07:38:57.494Z,12.20
2019-03-23T07:41:27.387Z,11.23
2019-03-23T07:43:56.821Z,12.30
2019-03-23T07:46:26.150Z,11.87
2019-03-23T07:48:55.804Z,10.93
2019-03-23T07:51:25.372Z,12.50
2019-03-23T07:53:54.743Z,12.17
2019-03-23T07:56:24.496Z,13.43
2019-03-23T07:58:54.236Z,11.90
2019-03-23T08:01:23.705Z,11.30
2019-03-23T08:03:53.349Z,9.73
2019-03-23T08:06:22.821Z,13.03
2019-03-23T08:08:52.194Z,12.30
2019-03-23T08:11:21.961Z,12.07
2019-03-23T08:13:51.884Z,12.97
2019-03-23T08:16:21.279Z,12.10
2019-03-23T08:18:51.157Z,13.13
2019-03-23T08:21:20.665Z,13.43
2019-03-23T08:23:50.303Z,14.40
2019-03-23T08:26:22.904Z,12.00
2019-03-23T08:28:52.375Z,13.77
2019-03-23T08:31:22.313Z,14.00
2019-03-23T08:33:52.142Z,15.40
2019-03-23T08:36:22.083Z,15.40
2019-03-23T08:38:51.775Z,15.23
2019-03-23T08:41:21.195Z,12.77
2019-03-23T08:43:50.743Z,13.77
2019-03-23T08:46:20.321Z,14.13
2019-03-23T08:48:49.735Z,14.53
2019-03-23T08:51:19.330Z,15.70
2019-03-23T08:53:48.680Z,14.47
2019-03-23T08:56:18.167Z,13.53
2019-03-23T08:58:45.625Z,14.90
2019-03-23T09:01:15.218Z,18.47
2019-03-23T09:03:52.375Z,14.87
2019-03-23T09:06:15.876Z,14.50
2019-03-23T09:08:45.416Z,16.82
2019-03-23T09:11:20.463Z,16.33
2019-03-23T09:13:45.997Z,13.73
2019-03-23T09:16:15.334Z,14.50
2019-03-23T09:18:44.804Z,16.60
2019-03-23T09:21:14.271Z,15.77
2019-03-23T09:23:43.700Z,13.70
2019-03-23T09:26:13.753Z,16.27
2019-03-23T09:28:43.228Z,15.17
2019-03-23T09:31:12.983Z,15.27
2019-03-23T09:33:42.394Z,14.23
2019-03-23T09:36:11.787Z,16.63
2019-03-23T09:38:41.470Z,14.83
2019-03-23T09:41:10.942Z,15.97
2019-03-23T09:43:46.701Z,16.60
2019-03-23T09:46:16.727Z,16.27
2019-03-23T09:48:46.230Z,14.90
2019-03-23T09:51:15.656Z,17.17
2019-03-23T09:53:44.988Z,17.03
2019-03-23T09:56:14.411Z,16.13
2019-03-23T09:58:43.782Z,16.80
2019-03-23T10:01:13.195Z,17.17
2019-03-23T10:03:42.979Z,18.63
2019-03-23T10:06:12.838Z,18.10
2019-03-23T10:08:42.756Z,16.57
2019-03-23T10:11:12.115Z,18.70
2019-03-23T10:13:41.579Z,18.00
2019-03-23T10:16:11.740Z,16.53
2019-03-23T10:18:41.211Z,18.93
2019-03-23T10:21:10.645Z,19.00
2019-03-23T10:23:40.441Z,19.40
2019-03-23T10:26:10.302Z,21.40
2019-03-23T10:28:39.730Z,19.40
2019-03-23T10:31:09.485Z,19.57
2019-03-23T10:33:38.976Z,21.00
2019-03-23T10:36:08.351Z,19.10
2019-03-23T10:38:37.815Z,18.50
2019-03-23T10:41:07.664Z,22.30
2019-03-23T10:43:39.004Z,19.03
2019-03-23T10:46:08.940Z,17.40
2019-03-23T10:48:38.376Z,19.40
2019-03-23T10:51:07.985Z,18.83
2019-03-23T10:53:37.364Z,18.33
2019-03-23T10:56:06.953Z,18.80
2019-03-23T10:58:36.738Z,19.87
2019-03-23T11:01:06.153Z,19.67
2019-03-23T11:03:35.626Z,21.33
2019-03-23T11:06:05.135Z,19.87
2019-03-23T11:08:34.579Z,19.27
2019-03-23T11:11:04.341Z,18.73
2019-03-23T11:13:34.072Z,21.47
2019-03-23T11:16:03.525Z,19.73
2019-03-23T11:18:32.900Z,19.30
2019-03-23T11:21:02.426Z,20.50
2019-03-23T11:23:32.139Z,22.60
2019-03-23T11:26:01.674Z,18.37
2019-03-23T11:28:31.421Z,20.37
2019-03-23T11:31:00.860Z,18.50
2019-03-23T11:33:30.194Z,19.60
2019-03-23T11:35:59.549Z,20.83
2019-03-23T11:38:28.897Z,21.87
2019-03-23T11:40:58.277Z,22.43
2019-03-23T11:43:27.951Z,21.17
2019-03-23T11:45:57.447Z,19.83
2019-03-23T11:48:26.859Z,19.67
2019-03-23T11:50:56.290Z,21.10
2019-03-23T11:53:25.738Z,21.23
2019-03-23T11:55:55.460Z,22.43
2019-03-23T11:58:24.854Z,22.17
2019-03-23T12:00:54.347Z,22.20
2019-03-23T12:03:23.737Z,23.43
2019-03-23T12:05:53.279Z,22.17
2019-03-23T12:08:22.902Z,21.40
2019-03-23T12:11:02.251Z,21.60
2019-03-23T12:13:23.628Z,23.67
2019-03-23T12:15:53.039Z,21.10
2019-03-23T12:18:22.767Z,23.47
2019-03-23T12:20:52.271Z,21.00
2019-03-23T12:23:22.002Z,20.93
2019-03-23T12:25:51.421Z,21.30
2019-03-23T12:28:20.875Z,22.50
2019-03-23T12:30:50.454Z,24.63
2019-03-23T12:33:21.497Z,22.90
2019-03-23T12:35:51.263Z,23.37
2019-03-23T12:38:20.657Z,23.90
2019-03-23T12:40:50.095Z,24.03
2019-03-23T12:43:19.509Z,22.50
2019-03-23T12:45:49.029Z,22.50
2019-03-23T12:48:18.451Z,21.87
2019-03-23T12:50:47.852Z,22.33
2019-03-23T12:53:17.271Z,24.30
2019-03-23T12:55:46.615Z,24.70
2019-03-23T12:58:16.020Z,24.97
2019-03-23T13:00:45.758Z,24.97
2019-03-23T13:03:15.195Z,23.30
2019-03-23T13:05:44.957Z,22.80
2019-03-23T13:08:14.415Z,22.43
2019-03-23T13:10:44.245Z,23.17
2019-03-23T13:13:13.567Z,23.87
2019-03-23T13:15:43.064Z,22.00
2019-03-23T13:18:12.910Z,24.23
2019-03-23T13:20:42.437Z,23.37
2019-03-23T13:23:12.712Z,24.50
2019-03-23T13:25:42.511Z,23.50
2019-03-23T13:28:12.401Z,23.60
2019-03-23T13:30:42.051Z,24.70
2019-03-23T13:33:12.106Z,23.87
2019-03-23T13:35:41.752Z,24.97
2019-03-23T13:38:11.375Z,26.33
2019-03-23T13:40:45.450Z,24.37
2019-03-23T13:43:15.195Z,25.60
2019-03-23T13:45:44.884Z,25.20
2019-03-23T13:48:14.590Z,24.60
2019-03-23T13:50:44.146Z,23.77
2019-03-23T13:53:13.595Z,23.93
2019-03-23T13:55:43.059Z,24.93
2019-03-23T13:58:13.396Z,23.30
2019-03-23T14:00:42.943Z,23.73
2019-03-23T14:03:12.803Z,22.17
2019-03-23T14:05:42.502Z,23.57
2019-03-23T14:08:12.186Z,23.63
2019-03-23T14:10:41.911Z,25.73
2019-03-23T14:13:11.527Z,25.30
2019-03-23T14:15:40.987Z,22.63
2019-03-23T14:18:10.724Z,23.40
2019-03-23T14:20:40.296Z,23.77
2019-03-23T14:23:09.921Z,24.33
2019-03-23T14:25:39.573Z,24.13
2019-03-23T14:28:09.004Z,21.77
2019-03-23T14:30:38.550Z,25.00
2019-03-23T14:33:08.104Z,23.17
2019-03-23T14:35:37.712Z,25.47
2019-03-23T14:38:07.181Z,20.87
2019-03-23T14:40:36.616Z,25.08
2019-03-23T14:43:06.254Z,24.83
2019-03-23T14:45:42.079Z,22.20
2019-03-23T14:48:12.197Z,23.77
2019-03-23T14:50:42.715Z,22.43
2019-03-23T14:53:12.363Z,24.90
2019-03-23T14:55:41.728Z,25.87
2019-03-23T14:58:11.163Z,26.43
2019-03-23T15:00:40.555Z,25.90
2019-03-23T15:03:10.408Z,23.93
2019-03-23T15:05:39.787Z,28.00
2019-03-23T15:08:09.310Z,24.37
2019-03-23T15:10:38.827Z,26.52
2019-03-23T15:13:08.271Z,26.53
2019-03-23T15:15:37.727Z,24.30
2019-03-23T15:18:07.414Z,23.20
2019-03-23T15:20:36.817Z,29.00
2019-03-23T15:23:06.531Z,28.07
2019-03-23T15:25:36.007Z,28.67
2019-03-23T15:28:05.517Z,23.73
2019-03-23T15:30:35.027Z,29.50
2019-03-23T15:33:04.567Z,24.10
2019-03-23T15:35:33.980Z,29.02
2019-03-23T15:39:35.756Z,28.37
2019-03-23T15:42:05.460Z,25.53
2019-03-23T15:44:35.366Z,28.73
2019-03-23T15:47:05.038Z,28.33
2019-03-23T15:49:34.629Z,28.63
2019-03-23T15:52:04.571Z,28.87
2019-03-23T15:54:34.281Z,29.77
2019-03-23T15:57:04.064Z,27.27
2019-03-23T15:59:33.634Z,27.80
2019-03-23T16:02:03.156Z,33.67
2019-03-23T16:04:32.982Z,29.50
2019-03-23T16:07:02.670Z,27.57
2019-03-23T16:09:32.179Z,30.93
2019-03-23T16:12:01.924Z,30.33
2019-03-23T16:14:32.156Z,26.03
2019-03-23T16:17:01.816Z,29.77
2019-03-23T16:19:31.175Z,27.73
2019-03-23T16:22:00.644Z,28.47
2019-03-23T16:24:30.028Z,25.00
2019-03-23T16:26:59.623Z,26.40
2019-03-23T16:29:29.030Z,25.57
2019-03-23T16:31:59.053Z,21.30
2019-03-23T16:34:28.536Z,30.73
2019-03-23T16:36:58.173Z,26.93
2019-03-23T16:39:27.540Z,32.23
2019-03-23T16:41:56.968Z,27.20
2019-03-23T16:44:27.039Z,31.77
2019-03-23T16:46:56.488Z,27.90
2019-03-23T16:49:25.898Z,29.63
2019-03-23T16:51:55.381Z,29.60
2019-03-23T16:54:24.795Z,29.50
2019-03-23T16:56:54.288Z,28.50
2019-03-23T16:59:27.208Z,30.23
2019-03-23T17:01:56.718Z,30.50
2019-03-23T17:04:26.559Z,29.10
2019-03-23T17:06:56.327Z,24.90
2019-03-23T17:09:25.713Z,28.80
2019-03-23T17:11:55.378Z,26.70
2019-03-23T17:14:24.853Z,28.07
2019-03-23T17:16:54.672Z,28.00
2019-03-23T17:19:24.767Z,33.20
2019-03-23T17:21:54.200Z,30.93
2019-03-23T17:24:24.226Z,27.63
2019-03-23T17:26:53.670Z,31.70
2019-03-23T17:29:23.047Z,24.90
2019-03-23T17:31:52.800Z,32.37
2019-03-23T17:34:23.056Z,30.57
2019-03-23T17:36:53.164Z,31.27
2019-03-23T17:39:22.581Z,33.80
2019-03-23T17:41:52.832Z,29.30
2019-03-23T17:44:22.274Z,33.37
2019-03-23T17:46:51.671Z,30.13
2019-03-23T17:49:21.020Z,33.67
2019-03-23T17:51:50.536Z,32.63
2019-03-23T17:54:20.064Z,26.63
2019-03-23T17:56:49.570Z,29.60
2019-03-23T17:59:19.060Z,32.77
2019-03-23T18:01:48.522Z,34.27
2019-03-23T18:04:17.973Z,33.60
2019-03-23T18:06:47.343Z,27.07
2019-03-23T18:09:17.235Z,32.40
2019-03-23T18:11:46.765Z,34.90
2019-03-23T18:14:16.586Z,24.40
2019-03-23T18:16:46.128Z,32.50
2019-03-23T18:19:15.634Z,33.60
2019-03-23T18:21:45.375Z,32.10
2019-03-23T18:24:14.983Z,35.97
2019-03-23T18:26:44.781Z,28.63
2019-03-23T18:29:14.333Z,33.30
2019-03-23T18:31:43.890Z,36.20
2019-03-23T18:34:13.543Z,34.03
2019-03-23T18:36:43.148Z,26.27
2019-03-23T18:39:12.549Z,22.33
2019-03-23T18:41:41.998Z,26.50
2019-03-23T18:44:16.169Z,18.27
2019-03-23T18:46:41.887Z,27.70
2019-03-23T18:49:12.507Z,21.80
2019-03-23T18:51:42.212Z,21.83
2019-03-23T18:54:12.143Z,17.97
2019-03-23T18:56:41.737Z,18.20
2019-03-23T18:59:11.168Z,21.70
2019-03-23T19:01:40.956Z,18.30
2019-03-23T19:04:12.254Z,17.27
2019-03-23T19:06:41.771Z,20.33
2019-03-23T19:09:11.327Z,19.27
2019-03-23T19:11:41.129Z,16.60
2019-03-23T19:14:12.300Z,20.07
2019-03-23T19:16:41.782Z,20.27
2019-03-23T19:19:11.256Z,20.07
2019-03-23T19:21:40.738Z,19.43
2019-03-23T19:24:10.293Z,18.93
2019-03-23T19:26:39.832Z,19.00
2019-03-23T19:29:09.777Z,18.70
2019-03-23T19:31:39.529Z,17.07
2019-03-23T19:34:09.139Z,18.40
2019-03-23T19:36:38.628Z,15.50
2019-03-23T19:39:09.335Z,19.30
2019-03-23T19:41:38.757Z,17.50
2019-03-23T19:44:08.486Z,17.93
2019-03-23T19:46:38.722Z,18.60
2019-03-23T19:49:08.285Z,17.53
2019-03-23T19:51:37.997Z,16.57
2019-03-23T19:54:07.512Z,16.20
2019-03-23T19:56:37.211Z,19.20
2019-03-23T19:59:06.668Z,18.93
2019-03-23T20:01:36.895Z,16.17
2019-03-23T20:04:06.477Z,17.53
2019-03-23T20:06:36.219Z,19.43
2019-03-23T20:09:08.091Z,19.30
2019-03-23T20:11:37.689Z,17.33
2019-03-23T20:14:07.242Z,16.23
2019-03-23T20:16:36.622Z,13.93
2019-03-23T20:19:06.176Z,16.47
2019-03-23T20:21:35.584Z,13.90
2019-03-23T20:24:05.490Z,16.40
2019-03-23T20:26:35.444Z,12.40
2019-03-23T20:29:04.977Z,14.37
2019-03-23T20:31:35.246Z,14.87
2019-03-23T20:34:04.794Z,17.53
2019-03-23T20:36:34.416Z,12.90
2019-03-23T20:39:05.591Z,14.97
2019-03-23T20:41:35.090Z,16.10
2019-03-23T20:44:09.342Z,14.70
2019-03-23T20:46:35.857Z,16.83
2019-03-23T20:49:05.307Z,15.90
2019-03-23T20:51:35.350Z,14.00
2019-03-23T20:54:05.634Z,14.83
2019-03-23T20:56:35.413Z,15.80
2019-03-23T20:59:04.935Z,19.00
2019-03-23T21:01:34.579Z,14.80
2019-03-23T21:04:04.535Z,14.97
2019-03-23T21:06:34.543Z,19.00
2019-03-23T21:09:06.083Z,15.17
2019-03-23T21:11:35.607Z,17.03
2019-03-23T21:14:05.121Z,11.90
2019-03-23T21:16:37.758Z,14.10
2019-03-23T21:19:07.665Z,15.20
2019-03-23T21:21:37.077Z,14.77
2019-03-23T21:24:06.828Z,20.80
2019-03-23T21:26:36.371Z,17.10
2019-03-23T21:29:06.222Z,17.10
2019-03-23T21:31:35.881Z,17.67
2019-03-23T21:34:05.448Z,18.13
2019-03-23T21:36:35.019Z,17.23
2019-03-23T21:39:06.048Z,16.70
2019-03-23T21:41:36.049Z,16.97
2019-03-23T21:44:05.687Z,18.50
2019-03-23T21:46:35.769Z,15.70
2019-03-23T21:49:05.837Z,16.97
2019-03-23T21:51:35.478Z,17.90
2019-03-23T21:54:05.187Z,21.73
2019-03-23T21:56:34.784Z,19.47
2019-03-23T21:59:04.369Z,16.07
2019-03-23T22:01:34.173Z,17.10
2019-03-23T22:04:03.866Z,18.40
2019-03-23T22:06:33.430Z,20.70
2019-03-23T22:09:04.475Z,18.27
2019-03-23T22:11:34.239Z,19.60
2019-03-23T22:14:04.227Z,18.10
2019-03-23T22:16:34.049Z,21.00
2019-03-23T22:19:05.486Z,17.83
2019-03-23T22:21:35.294Z,15.43
2019-03-23T22:24:05.059Z,16.03
2019-03-23T22:26:34.588Z,19.47
2019-03-23T22:29:04.040Z,18.23
2019-03-23T22:31:33.596Z,19.20
2019-03-23T22:34:07.741Z,15.60
2019-03-23T22:36:38.451Z,19.90
2019-03-23T22:39:08.267Z,17.70
2019-03-23T22:41:38.486Z,21.53
2019-03-23T22:44:09.373Z,19.40
2019-03-23T22:46:38.982Z,21.20
2019-03-23T22:49:08.445Z,18.53
2019-03-23T22:51:38.205Z,16.60
2019-03-23T22:54:08.004Z,20.83
2019-03-23T22:56:37.465Z,20.33
2019-03-23T22:59:06.901Z,18.10
2019-03-23T23:01:36.538Z,16.30
2019-03-23T23:04:06.091Z,21.23
2019-03-23T23:06:35.684Z,17.53
2019-03-23T23:09:08.867Z,15.97
2019-03-23T23:11:38.836Z,22.27
2019-03-23T23:14:08.605Z,18.37
2019-03-23T23:16:38.056Z,17.00
2019-03-23T23:19:07.873Z,22.57
2019-03-23T23:21:37.265Z,19.97
2019-03-23T23:24:06.886Z,17.90
2019-03-23T23:26:36.345Z,20.13
2019-03-23T23:29:05.793Z,20.27
2019-03-23T23:31:35.222Z,20.70
2019-03-23T23:34:04.886Z,26.50
2019-03-23T23:36:34.395Z,22.20
2019-03-23T23:39:05.590Z,17.97
2019-03-23T23:41:35.104Z,22.93
2019-03-23T23:44:05.075Z,22.90
2019-03-23T23:46:34.657Z,22.03
2019-03-23T23:49:04.496Z,22.47
2019-03-23T23:51:33.294Z,21.47
2019-03-23T23:54:02.772Z,23.93
2019-03-23T23:56:32.394Z,22.80
2019-03-23T23:59:01.871Z,24.17
